Weather at Barwick Lafayette Airport

Public forecast

Using degrees Fahrenheit for public forecast. Weather courtesy of forecast.io.

Current aviation weather report (METAR) for Barwick Lafayette Airport

Retrieved 2021/01/23 07:35 UTC (23 minutes ago):

K9A5 230735Z AUTO 02003KT 10SM CLR 01/M02 A3017 RMK AO2 T00051020

Closest aviation forecast (TAF) to Barwick Lafayette Airport

Closest forecast is Lovell Field, 21.2 nm (39.4 km) NNE. Retrieved 2021/01/23 06:40 UTC (1 hour ago):

TAF KCHA 230538Z 2306/2406 36005KT P6SM SKC